createdAt,value
2018-05-16T00:00:56.135Z,12.30
2018-05-16T00:03:24.450Z,12.40
2018-05-16T00:05:51.982Z,12.40
2018-05-16T00:08:20.310Z,12.40
2018-05-16T00:10:48.603Z,12.40
2018-05-16T00:13:16.926Z,12.40
2018-05-16T00:15:45.223Z,12.30
2018-05-16T00:18:13.545Z,12.30
2018-05-16T00:20:41.847Z,12.30
2018-05-16T00:23:10.179Z,12.20
2018-05-16T00:25:38.479Z,12.20
2018-05-16T00:28:06.811Z,12.10
2018-05-16T00:30:35.101Z,12.00
2018-05-16T00:33:03.420Z,11.90
2018-05-16T00:35:31.713Z,11.80
2018-05-16T00:38:00.042Z,11.80
2018-05-16T00:40:28.338Z,11.80
2018-05-16T00:42:56.657Z,11.80
2018-05-16T00:45:24.954Z,11.80
2018-05-16T00:47:53.271Z,11.70
2018-05-16T00:50:21.571Z,11.70
2018-05-16T00:52:49.890Z,11.60
2018-05-16T00:55:18.190Z,11.60
2018-05-16T00:57:46.510Z,11.50
2018-05-16T01:00:14.801Z,11.50
2018-05-16T01:02:43.115Z,11.40
2018-05-16T01:05:11.410Z,11.40
2018-05-16T01:07:39.743Z,11.40
2018-05-16T01:10:08.040Z,11.30
2018-05-16T01:12:36.368Z,11.30
2018-05-16T01:15:04.659Z,11.30
2018-05-16T01:17:32.995Z,11.30
2018-05-16T01:20:01.299Z,11.30
2018-05-16T01:22:29.630Z,11.30
2018-05-16T01:24:57.930Z,11.30
2018-05-16T01:27:26.250Z,11.30
2018-05-16T01:29:54.551Z,11.30
2018-05-16T01:32:22.871Z,11.30
2018-05-16T01:34:51.171Z,11.30
2018-05-16T01:37:18.721Z,11.30
2018-05-16T01:39:47.015Z,11.30
2018-05-16T01:42:15.341Z,11.40
2018-05-16T01:44:43.636Z,11.40
2018-05-16T01:47:11.952Z,11.50
2018-05-16T01:49:40.270Z,11.50
2018-05-16T01:52:08.567Z,11.50
2018-05-16T01:54:36.888Z,11.50
2018-05-16T01:57:05.185Z,11.50
2018-05-16T01:59:33.503Z,11.50
2018-05-16T02:02:01.814Z,11.50
2018-05-16T02:04:30.131Z,11.40
2018-05-16T02:06:58.430Z,11.40
2018-05-16T02:09:26.755Z,11.40
2018-05-16T02:11:55.057Z,11.40
2018-05-16T02:14:23.365Z,11.40
2018-05-16T02:16:51.662Z,11.40
2018-05-16T02:19:19.983Z,11.30
2018-05-16T02:21:48.278Z,11.30
2018-05-16T02:24:16.594Z,11.30
2018-05-16T02:26:44.889Z,11.30
2018-05-16T02:29:13.215Z,11.40
2018-05-16T02:31:41.518Z,11.40
2018-05-16T02:34:09.868Z,11.40
2018-05-16T02:36:38.162Z,11.40
2018-05-16T02:39:06.480Z,11.40
2018-05-16T02:41:34.781Z,11.40
2018-05-16T02:44:03.098Z,11.40
2018-05-16T02:46:31.399Z,11.50
2018-05-16T02:48:59.716Z,11.40
2018-05-16T02:51:28.011Z,11.50
2018-05-16T02:53:56.336Z,11.50
2018-05-16T02:56:24.635Z,11.50
2018-05-16T02:58:52.201Z,11.50
2018-05-16T03:01:20.502Z,11.60
2018-05-16T03:03:48.823Z,11.70
2018-05-16T03:06:17.127Z,11.70
2018-05-16T03:08:45.447Z,11.70
2018-05-16T03:11:13.734Z,11.80
2018-05-16T03:13:42.047Z,11.70
2018-05-16T03:16:10.351Z,11.80
2018-05-16T03:18:38.672Z,11.80
2018-05-16T03:21:06.975Z,11.80
2018-05-16T03:23:35.296Z,11.80
2018-05-16T03:26:03.595Z,11.90
2018-05-16T03:28:31.892Z,11.90
2018-05-16T03:31:00.205Z,11.90
2018-05-16T03:33:28.502Z,12.00
2018-05-16T03:35:56.823Z,12.00
2018-05-16T03:38:25.123Z,12.00
2018-05-16T03:40:53.447Z,12.10
2018-05-16T03:43:21.756Z,12.10
2018-05-16T03:45:50.073Z,12.10
2018-05-16T03:48:18.380Z,12.20
2018-05-16T03:50:46.709Z,12.20
2018-05-16T03:53:15.030Z,12.20
2018-05-16T03:55:43.352Z,12.20
2018-05-16T03:58:23.418Z,12.20
2018-05-16T04:01:03.635Z,12.20
2018-05-16T04:03:43.779Z,12.20
2018-05-16T04:06:12.098Z,12.30
2018-05-16T04:08:40.395Z,12.30
2018-05-16T04:11:08.714Z,12.40
2018-05-16T04:13:37.119Z,12.40
2018-05-16T04:16:05.337Z,12.50
2018-05-16T04:18:33.638Z,12.50
2018-05-16T04:21:01.956Z,12.60
2018-05-16T04:23:30.250Z,12.60
2018-05-16T04:25:58.570Z,12.60
2018-05-16T04:28:26.863Z,12.60
2018-05-16T04:30:55.175Z,12.70
2018-05-16T04:33:23.470Z,12.70
2018-05-16T04:35:51.778Z,12.80
2018-05-16T04:38:20.082Z,12.80
2018-05-16T04:40:48.402Z,12.80
2018-05-16T04:43:16.719Z,12.90
2018-05-16T04:45:45.057Z,12.90
2018-05-16T04:48:13.350Z,12.90
2018-05-16T04:50:41.679Z,13.00
2018-05-16T04:53:09.987Z,13.10
2018-05-16T04:55:38.303Z,13.20
2018-05-16T04:58:06.595Z,13.20
2018-05-16T05:00:34.922Z,13.30
2018-05-16T05:03:03.223Z,13.40
2018-05-16T05:05:31.542Z,13.40
2018-05-16T05:07:59.834Z,13.50
2018-05-16T05:10:28.160Z,13.50
2018-05-16T05:12:56.467Z,13.50
2018-05-16T05:15:24.786Z,13.60
2018-05-16T05:17:53.089Z,13.60
2018-05-16T05:20:21.417Z,13.60
2018-05-16T05:22:49.724Z,13.70
2018-05-16T05:25:18.058Z,13.60
2018-05-16T05:27:46.359Z,13.60
2018-05-16T05:30:15.325Z,13.60
2018-05-16T05:32:43.647Z,13.60
2018-05-16T05:35:11.948Z,13.60
2018-05-16T05:37:40.270Z,13.60
2018-05-16T05:40:08.567Z,13.60
2018-05-16T05:42:36.892Z,13.60
2018-05-16T05:45:05.191Z,13.70
2018-05-16T05:47:33.520Z,13.70
2018-05-16T05:50:01.821Z,13.80
2018-05-16T05:52:30.167Z,13.80
2018-05-16T05:54:58.479Z,13.80
2018-05-16T05:57:26.793Z,13.90
2018-05-16T05:59:55.115Z,14.00
2018-05-16T06:02:23.431Z,14.00
2018-05-16T06:04:51.732Z,14.00
2018-05-16T06:07:19.283Z,14.00
2018-05-16T06:09:47.578Z,14.20
2018-05-16T06:12:15.898Z,14.30
2018-05-16T06:14:44.240Z,14.50
2018-05-16T06:17:12.563Z,14.70
2018-05-16T06:19:40.965Z,14.70
2018-05-16T06:22:09.195Z,14.70
2018-05-16T06:24:37.490Z,14.70
2018-05-16T06:27:05.914Z,14.80
2018-05-16T06:29:34.129Z,14.90
2018-05-16T06:32:02.455Z,14.90
2018-05-16T06:34:30.752Z,15.00
2018-05-16T06:36:59.075Z,15.30
2018-05-16T06:39:27.380Z,15.60
2018-05-16T06:41:55.694Z,15.90
2018-05-16T06:44:23.996Z,16.30
2018-05-16T06:46:51.551Z,16.30
2018-05-16T06:49:19.848Z,16.90
2018-05-16T06:51:48.158Z,17.00
2018-05-16T06:54:16.454Z,17.30
2018-05-16T06:56:44.803Z,17.60
2018-05-16T06:59:13.090Z,18.10
2018-05-16T07:01:41.409Z,18.40
2018-05-16T07:04:09.756Z,18.70
2018-05-16T07:06:38.039Z,18.80
2018-05-16T07:09:06.334Z,18.70
2018-05-16T07:11:34.666Z,18.50
2018-05-16T07:14:02.970Z,18.50
2018-05-16T07:16:31.261Z,18.50
2018-05-16T07:18:59.579Z,18.50
2018-05-16T07:21:27.872Z,18.50
2018-05-16T07:23:56.220Z,18.50
2018-05-16T07:26:24.511Z,18.50
2018-05-16T07:28:52.821Z,18.50
2018-05-16T07:31:21.123Z,18.50
2018-05-16T07:33:49.436Z,18.70
2018-05-16T07:36:17.731Z,18.70
2018-05-16T07:38:46.052Z,18.50
2018-05-16T07:41:14.455Z,18.30
2018-05-16T07:43:42.698Z,18.10
2018-05-16T07:46:10.991Z,18.10
2018-05-16T07:48:39.303Z,18.40
2018-05-16T07:51:07.606Z,18.90
2018-05-16T07:53:35.927Z,19.20
2018-05-16T07:56:04.340Z,19.50
2018-05-16T07:58:32.623Z,19.90
2018-05-16T08:01:00.923Z,20.10
2018-05-16T08:03:29.242Z,19.90
2018-05-16T08:05:57.535Z,19.50
2018-05-16T08:08:25.860Z,19.20
2018-05-16T08:10:54.155Z,19.10
2018-05-16T08:13:22.474Z,19.40
2018-05-16T08:15:50.766Z,19.60
2018-05-16T08:18:19.082Z,19.80
2018-05-16T08:20:47.382Z,19.80
2018-05-16T08:23:15.707Z,19.60
2018-05-16T08:25:43.991Z,19.30
2018-05-16T08:28:12.305Z,19.10
2018-05-16T08:30:40.594Z,18.70
2018-05-16T08:33:08.914Z,18.80
2018-05-16T08:35:37.210Z,18.70
2018-05-16T08:38:05.523Z,18.70
2018-05-16T08:40:33.814Z,18.90
2018-05-16T08:43:02.212Z,19.20
2018-05-16T08:45:30.828Z,19.30
2018-05-16T08:47:59.143Z,19.50
2018-05-16T08:50:28.378Z,19.70
2018-05-16T08:52:56.712Z,19.60
2018-05-16T08:55:25.010Z,19.50
2018-05-16T08:57:53.308Z,19.40
2018-05-16T09:00:21.631Z,19.20
2018-05-16T09:02:49.930Z,19.10
2018-05-16T09:05:18.249Z,19.00
2018-05-16T09:07:46.551Z,19.10
2018-05-16T09:10:14.864Z,19.60
2018-05-16T09:12:43.179Z,20.10
2018-05-16T09:15:11.493Z,20.70
2018-05-16T09:17:39.787Z,20.90
2018-05-16T09:20:08.107Z,20.80
2018-05-16T09:22:36.395Z,20.90
2018-05-16T09:25:08.011Z,21.00
2018-05-16T09:27:36.317Z,21.10
2018-05-16T09:30:04.639Z,21.40
2018-05-16T09:32:32.931Z,21.60
2018-05-16T09:35:01.255Z,21.90
2018-05-16T09:37:29.559Z,21.80
2018-05-16T09:39:57.879Z,21.60
2018-05-16T09:42:26.177Z,21.40
2018-05-16T09:44:54.495Z,21.10
2018-05-16T09:47:22.788Z,20.90
2018-05-16T09:49:51.107Z,20.80
2018-05-16T09:52:19.407Z,21.10
2018-05-16T09:54:47.719Z,21.40
2018-05-16T09:57:16.015Z,21.60
2018-05-16T09:59:45.330Z,21.90
2018-05-16T10:02:13.623Z,22.20
2018-05-16T10:04:41.944Z,22.10
2018-05-16T10:07:10.243Z,22.00
2018-05-16T10:09:38.616Z,22.20
2018-05-16T10:12:06.866Z,22.30
2018-05-16T10:14:35.180Z,22.60
2018-05-16T10:17:03.580Z,22.70
2018-05-16T10:19:31.809Z,22.80
2018-05-16T10:22:00.119Z,22.40
2018-05-16T10:24:28.437Z,22.10
2018-05-16T10:26:56.727Z,22.00
2018-05-16T10:29:25.038Z,22.00
2018-05-16T10:31:53.331Z,22.10
2018-05-16T10:34:21.647Z,22.40
2018-05-16T10:36:49.939Z,22.80
2018-05-16T10:39:17.786Z,22.70
2018-05-16T10:41:46.086Z,22.50
2018-05-16T10:44:14.390Z,22.10
2018-05-16T10:46:41.938Z,22.10
2018-05-16T10:49:09.471Z,22.00
2018-05-16T10:51:37.788Z,21.60
2018-05-16T10:54:06.086Z,21.40
2018-05-16T10:56:34.422Z,21.20
2018-05-16T10:59:02.721Z,21.30
2018-05-16T11:01:31.039Z,21.30
2018-05-16T11:03:59.334Z,21.60
2018-05-16T11:06:27.662Z,22.00
2018-05-16T11:08:55.963Z,22.20
2018-05-16T11:11:24.282Z,22.20
2018-05-16T11:13:52.574Z,21.90
2018-05-16T11:16:20.122Z,21.90
2018-05-16T11:18:48.423Z,21.60
2018-05-16T11:21:16.843Z,21.50
2018-05-16T11:23:45.282Z,21.30
2018-05-16T11:26:13.601Z,21.40
2018-05-16T11:28:41.895Z,21.50
2018-05-16T11:31:10.219Z,21.60
2018-05-16T11:33:38.510Z,21.80
2018-05-16T11:36:06.839Z,21.40
2018-05-16T11:38:35.139Z,21.20
2018-05-16T11:41:03.439Z,21.30
2018-05-16T11:43:31.799Z,21.50
2018-05-16T11:46:00.103Z,21.70
2018-05-16T11:48:28.423Z,21.70
2018-05-16T11:50:56.714Z,21.60
2018-05-16T11:53:25.028Z,21.70
2018-05-16T11:55:53.321Z,21.80
2018-05-16T11:58:21.656Z,21.70
2018-05-16T12:00:49.951Z,21.70
2018-05-16T12:03:18.269Z,21.50
2018-05-16T12:05:46.575Z,21.40
2018-05-16T12:08:14.903Z,21.30
2018-05-16T12:10:43.206Z,21.10
2018-05-16T12:13:11.527Z,20.90
2018-05-16T12:15:39.820Z,20.80
2018-05-16T12:18:08.144Z,20.80
2018-05-16T12:20:36.464Z,20.60
2018-05-16T12:23:04.782Z,20.40
2018-05-16T12:25:33.085Z,20.30
2018-05-16T12:28:01.400Z,20.20
2018-05-16T12:30:29.707Z,20.20
2018-05-16T12:32:58.023Z,20.40
2018-05-16T12:35:26.318Z,20.80
2018-05-16T12:37:54.683Z,21.10
2018-05-16T12:40:22.999Z,21.50
2018-05-16T12:43:03.235Z,21.70
2018-05-16T12:45:31.527Z,21.90
2018-05-16T12:47:59.836Z,21.90
2018-05-16T12:50:28.166Z,21.70
2018-05-16T12:52:56.462Z,21.30
2018-05-16T12:55:24.779Z,21.20
2018-05-16T12:57:53.079Z,21.10
2018-05-16T13:00:21.398Z,20.90
2018-05-16T13:02:49.690Z,20.90
2018-05-16T13:05:18.011Z,20.80
2018-05-16T13:07:46.306Z,21.20
2018-05-16T13:10:14.623Z,21.50
2018-05-16T13:12:42.919Z,21.80
2018-05-16T13:15:10.467Z,21.80
2018-05-16T13:17:38.858Z,22.70
2018-05-16T13:20:07.111Z,22.60
2018-05-16T13:22:35.415Z,22.50
2018-05-16T13:25:03.743Z,22.40
2018-05-16T13:27:32.059Z,22.40
2018-05-16T13:30:00.374Z,22.20
2018-05-16T13:32:28.670Z,21.80
2018-05-16T13:34:56.987Z,21.40
2018-05-16T13:37:24.518Z,21.40
2018-05-16T13:39:52.071Z,21.10
2018-05-16T13:42:20.378Z,21.10
2018-05-16T13:44:48.694Z,21.10
2018-05-16T13:47:16.391Z,21.10
2018-05-16T13:49:44.746Z,21.20
2018-05-16T13:52:13.043Z,21.10
2018-05-16T13:54:41.354Z,20.90
2018-05-16T13:57:09.657Z,20.60
2018-05-16T13:59:37.970Z,20.30
2018-05-16T14:02:06.275Z,20.00
2018-05-16T14:04:34.586Z,19.70
2018-05-16T14:07:02.120Z,19.70
2018-05-16T14:09:30.441Z,19.40
2018-05-16T14:11:58.736Z,19.40
2018-05-16T14:14:28.002Z,19.40
2018-05-16T14:16:56.322Z,19.50
2018-05-16T14:19:24.625Z,19.40
2018-05-16T14:21:52.953Z,19.30
2018-05-16T14:24:21.252Z,19.40
2018-05-16T14:26:49.567Z,19.50
2018-05-16T14:29:17.861Z,19.70
2018-05-16T14:31:47.058Z,19.90
2018-05-16T14:34:15.355Z,20.20
2018-05-16T14:36:43.678Z,20.30
2018-05-16T14:39:11.970Z,20.20
2018-05-16T14:41:40.283Z,19.80
2018-05-16T14:44:08.586Z,19.60
2018-05-16T14:46:36.896Z,19.40
2018-05-16T14:49:05.195Z,19.40
2018-05-16T14:51:33.506Z,19.30
2018-05-16T14:54:01.812Z,19.30
2018-05-16T14:56:30.139Z,19.30
2018-05-16T14:58:58.441Z,19.40
2018-05-16T15:01:26.759Z,19.50
2018-05-16T15:03:55.050Z,19.60
2018-05-16T15:06:23.362Z,19.50
2018-05-16T15:08:51.651Z,19.50
2018-05-16T15:11:19.971Z,19.40
2018-05-16T15:13:48.266Z,19.20
2018-05-16T15:16:16.581Z,19.10
2018-05-16T15:18:44.119Z,19.10
2018-05-16T15:21:12.447Z,18.90
2018-05-16T15:23:40.751Z,18.90
2018-05-16T15:26:09.063Z,18.80
2018-05-16T15:28:37.358Z,18.70
2018-05-16T15:31:05.679Z,18.70
2018-05-16T15:33:33.990Z,18.60
2018-05-16T15:36:02.306Z,18.60
2018-05-16T15:38:30.808Z,18.50
2018-05-16T15:40:58.941Z,18.50
2018-05-16T15:43:27.238Z,18.40
2018-05-16T15:45:55.559Z,18.30
2018-05-16T15:48:23.855Z,18.20
2018-05-16T15:50:52.186Z,18.20
2018-05-16T15:53:20.489Z,18.20
2018-05-16T15:55:48.792Z,18.30
2018-05-16T15:58:17.108Z,18.30
2018-05-16T16:00:45.409Z,18.20
2018-05-16T16:03:13.727Z,18.10
2018-05-16T16:05:42.022Z,18.20
2018-05-16T16:08:10.349Z,18.20
2018-05-16T16:10:38.651Z,18.30
2018-05-16T16:13:06.970Z,18.50
2018-05-16T16:15:35.268Z,18.70
2018-05-16T16:18:02.820Z,18.70
2018-05-16T16:20:30.351Z,18.80
2018-05-16T16:22:58.666Z,18.80
2018-05-16T16:25:26.979Z,18.60
2018-05-16T16:27:54.540Z,18.60
2018-05-16T16:30:22.844Z,18.30
2018-05-16T16:32:51.170Z,18.20
2018-05-16T16:35:19.466Z,18.10
2018-05-16T16:37:47.787Z,18.00
2018-05-16T16:40:16.079Z,17.80
2018-05-16T16:42:44.401Z,17.70
2018-05-16T16:45:12.700Z,17.60
2018-05-16T16:47:41.013Z,17.60
2018-05-16T16:50:09.359Z,17.50
2018-05-16T16:52:37.641Z,17.60
2018-05-16T16:55:05.951Z,17.60
2018-05-16T16:57:34.275Z,17.70
2018-05-16T17:00:02.611Z,17.80
2018-05-16T17:02:30.953Z,17.70
2018-05-16T17:04:59.251Z,17.70
2018-05-16T17:07:27.638Z,17.50
2018-05-16T17:09:55.926Z,17.40
2018-05-16T17:12:24.244Z,17.30
2018-05-16T17:14:52.548Z,17.30
2018-05-16T17:17:20.864Z,17.20
2018-05-16T17:19:49.163Z,17.20
2018-05-16T17:22:16.710Z,17.20
2018-05-16T17:24:45.024Z,17.10
2018-05-16T17:27:13.340Z,16.90
2018-05-16T17:29:41.640Z,16.80
2018-05-16T17:32:09.943Z,16.70
2018-05-16T17:34:38.266Z,16.50
2018-05-16T17:37:06.567Z,16.40
2018-05-16T17:39:34.907Z,16.40
2018-05-16T17:42:03.218Z,16.40
2018-05-16T17:44:31.535Z,16.40
2018-05-16T17:46:59.845Z,16.40
2018-05-16T17:49:28.176Z,16.40
2018-05-16T17:51:56.475Z,16.30
2018-05-16T17:54:24.792Z,16.30
2018-05-16T17:56:53.088Z,16.20
2018-05-16T17:59:20.639Z,16.10
2018-05-16T18:01:48.930Z,16.10
2018-05-16T18:04:17.238Z,16.10
2018-05-16T18:06:45.534Z,16.00
2018-05-16T18:09:13.851Z,16.00
2018-05-16T18:11:42.150Z,15.90
2018-05-16T18:14:22.355Z,15.80
2018-05-16T18:17:02.702Z,15.80
2018-05-16T18:19:30.999Z,15.70
2018-05-16T18:21:59.398Z,15.70
2018-05-16T18:24:27.724Z,15.60
2018-05-16T18:26:56.018Z,15.50
2018-05-16T18:29:24.375Z,15.50
2018-05-16T18:31:52.679Z,15.40
2018-05-16T18:34:21.051Z,15.20
2018-05-16T18:36:48.602Z,15.10
2018-05-16T18:39:16.939Z,15.10
2018-05-16T18:41:45.326Z,15.10
2018-05-16T18:44:13.672Z,15.10
2018-05-16T18:46:41.982Z,15.20
2018-05-16T18:49:10.326Z,15.20
2018-05-16T18:51:38.710Z,15.10
2018-05-16T18:54:07.164Z,15.20
2018-05-16T18:56:35.519Z,15.10
2018-05-16T18:59:03.880Z,15.10
2018-05-16T19:01:32.320Z,15.10
2018-05-16T19:04:00.725Z,15.10
2018-05-16T19:06:29.056Z,15.00
2018-05-16T19:08:57.405Z,15.00
2018-05-16T19:11:25.798Z,15.00
2018-05-16T19:13:54.140Z,14.90
2018-05-16T19:16:22.467Z,14.90
2018-05-16T19:18:50.848Z,14.90
2018-05-16T19:21:19.202Z,14.90
2018-05-16T19:23:47.523Z,14.80
2018-05-16T19:26:15.844Z,14.70
2018-05-16T19:28:44.227Z,14.70
2018-05-16T19:31:12.549Z,14.60
2018-05-16T19:33:40.926Z,14.60
2018-05-16T19:36:09.348Z,14.60
2018-05-16T19:38:37.702Z,14.60
2018-05-16T19:41:06.128Z,14.60
2018-05-16T19:43:34.431Z,14.60
2018-05-16T19:46:02.909Z,14.60
2018-05-16T19:48:31.141Z,14.60
2018-05-16T19:50:59.456Z,14.60
2018-05-16T19:53:27.768Z,14.60
2018-05-16T19:55:56.103Z,14.60
2018-05-16T19:58:24.453Z,14.60
2018-05-16T20:00:52.782Z,14.70
2018-05-16T20:03:21.157Z,14.70
2018-05-16T20:05:49.482Z,14.60
2018-05-16T20:08:17.832Z,14.60
2018-05-16T20:10:46.160Z,14.60
2018-05-16T20:13:14.459Z,14.60
2018-05-16T20:15:42.790Z,14.60
2018-05-16T20:18:11.149Z,14.60
2018-05-16T20:20:40.405Z,14.60
2018-05-16T20:23:08.709Z,14.60
2018-05-16T20:25:37.036Z,14.60
2018-05-16T20:28:05.361Z,14.60
2018-05-16T20:30:33.663Z,14.60
2018-05-16T20:33:01.988Z,14.60
2018-05-16T20:35:30.291Z,14.50
2018-05-16T20:37:58.614Z,14.50
2018-05-16T20:40:26.911Z,14.50
2018-05-16T20:42:55.227Z,14.50
2018-05-16T20:45:23.602Z,14.50
2018-05-16T20:47:51.867Z,14.40
2018-05-16T20:50:20.182Z,14.40
2018-05-16T20:52:48.495Z,14.40
2018-05-16T20:55:16.787Z,14.40
2018-05-16T20:57:45.197Z,14.40
2018-05-16T21:00:13.450Z,14.40
2018-05-16T21:02:41.770Z,14.40
2018-05-16T21:05:09.626Z,14.30
2018-05-16T21:07:37.943Z,14.30
2018-05-16T21:10:06.235Z,14.20
2018-05-16T21:12:34.558Z,14.20
2018-05-16T21:15:02.859Z,14.20
2018-05-16T21:17:31.178Z,14.10
2018-05-16T21:19:59.473Z,14.10
2018-05-16T21:22:27.940Z,14.00
2018-05-16T21:24:56.251Z,14.00
2018-05-16T21:27:24.579Z,13.90
2018-05-16T21:29:52.878Z,13.80
2018-05-16T21:32:21.199Z,13.80
2018-05-16T21:34:49.502Z,13.80
2018-05-16T21:37:17.820Z,13.70
2018-05-16T21:39:46.123Z,13.70
2018-05-16T21:42:14.443Z,13.60
2018-05-16T21:44:42.737Z,13.60
2018-05-16T21:47:11.035Z,13.50
2018-05-16T21:49:39.354Z,13.50
2018-05-16T21:52:07.668Z,13.40
2018-05-16T21:54:35.994Z,13.40
2018-05-16T21:57:04.307Z,13.40
2018-05-16T21:59:32.618Z,13.30
2018-05-16T22:02:00.923Z,13.30
2018-05-16T22:04:29.246Z,13.30
2018-05-16T22:06:57.550Z,13.20
2018-05-16T22:09:25.862Z,13.20
2018-05-16T22:11:54.168Z,13.10
2018-05-16T22:14:22.485Z,13.10
2018-05-16T22:16:50.790Z,13.00
2018-05-16T22:19:19.106Z,13.10
2018-05-16T22:21:46.642Z,13.00
2018-05-16T22:24:14.966Z,13.10
2018-05-16T22:26:43.274Z,13.00
2018-05-16T22:29:11.607Z,13.10
2018-05-16T22:31:45.638Z,13.00
2018-05-16T22:34:19.627Z,13.00
2018-05-16T22:36:53.511Z,12.90
2018-05-16T22:39:27.574Z,12.80
2018-05-16T22:42:01.687Z,12.80
2018-05-16T22:44:48.719Z,12.70
2018-05-16T22:47:17.018Z,12.70
2018-05-16T22:49:45.319Z,12.70
2018-05-16T22:52:13.639Z,12.70
2018-05-16T22:54:41.943Z,12.70
2018-05-16T22:57:09.494Z,12.70
2018-05-16T22:59:37.781Z,12.80
2018-05-16T23:02:06.102Z,12.80
2018-05-16T23:04:34.397Z,12.80
2018-05-16T23:07:02.719Z,12.80
2018-05-16T23:09:31.023Z,12.80
2018-05-16T23:11:59.345Z,12.80
2018-05-16T23:14:27.633Z,12.70
2018-05-16T23:16:55.956Z,12.70
2018-05-16T23:19:24.254Z,12.70
2018-05-16T23:21:52.571Z,12.60
2018-05-16T23:24:20.879Z,12.60
2018-05-16T23:26:49.207Z,12.60
2018-05-16T23:29:17.503Z,12.50
2018-05-16T23:31:45.804Z,12.50
2018-05-16T23:34:14.119Z,12.50
2018-05-16T23:36:42.414Z,12.40
2018-05-16T23:39:10.739Z,12.40
2018-05-16T23:41:38.275Z,12.40
2018-05-16T23:44:06.599Z,12.40
2018-05-16T23:46:34.898Z,12.40
2018-05-16T23:49:02.446Z,12.30
2018-05-16T23:51:30.753Z,12.40
2018-05-16T23:53:59.071Z,12.30
2018-05-16T23:56:26.594Z,12.30
2018-05-16T23:58:54.910Z,12.40
